»·PEaware :: N191ME KLAS-54CL

N191ME :: KLAS-54CL

FLIGHT INFORMATION

Flight Status: Arrived
Operator: Privately registered:
United States
More flights under this callsign
Pilot: Trevor S. (2559)
Aircraft: CESSNA 206 STATIONAIR
(C206)
More flights by this aircraft type
Origin: KLAS McCarran Intl
United States
Destination: 54CL Lake Riverside Estates
United States
More flights between these airports :: More routes between these airports
Route: +HEC
File this flight plan on PilotEdge
Remarks: RW COM / IFR PILOT / FS9 / FSPax / FSEconomy
Altitude:
(Current/Filed)
10,500ft
Speed:
(Current/Filed)
138kts
Departed: 14-Jan-15 01:56 PM
Arrived: 14-Jan-15 03:08 PM
Distance/Time
Traveled:
174nm/1:12
Distance/Time
To Go:
Arrived

Flight Plot

Page will automatically refresh every two minutes.


Map Options




Map Legend


Flown Route
Filed Route
Departure Airport
Arrival Airport
Navaid (VOR, NDB)
Fix

Horizontal Profiles

Position Reports

Time Latitude Longitude Heading Altitude Ground
Speed
14-Jan-15 13:40 36.082894 -115.170230 174 2184ft 0kts
14-Jan-15 13:41 36.082894 -115.170230 174 2184ft 0kts
14-Jan-15 13:42 36.082893 -115.170230 174 2184ft 0kts
14-Jan-15 13:43 36.082893 -115.170230 174 2184ft 0kts
14-Jan-15 13:44 36.082892 -115.170230 175 2184ft 0kts
14-Jan-15 13:45 36.082892 -115.170230 175 2184ft 0kts
14-Jan-15 13:46 36.082892 -115.170230 175 2184ft 0kts
14-Jan-15 13:47 36.082891 -115.170230 175 2184ft 0kts
14-Jan-15 13:48 36.082891 -115.170229 175 2184ft 0kts
14-Jan-15 13:49 36.082852 -115.170206 138 2184ft 2kts
14-Jan-15 13:50 36.081402 -115.169248 205 2184ft 22kts
14-Jan-15 13:51 36.078021 -115.169906 88 2184ft 4kts
14-Jan-15 13:52 36.089380 -115.162677 22 2546ft 90kts
14-Jan-15 13:53 36.103200 -115.176837 276 3742ft 92kts
14-Jan-15 13:54 36.108792 -115.215708 281 3979ft 139kts
14-Jan-15 13:55 36.114918 -115.265270 263 3996ft 149kts
14-Jan-15 13:56 36.082629 -115.281240 168 4577ft 124kts
14-Jan-15 13:57 36.051638 -115.270988 161 5644ft 111kts
14-Jan-15 13:58 36.020917 -115.261000 183 6442ft 122kts
14-Jan-15 13:59 35.987997 -115.269613 195 7275ft 121kts
14-Jan-15 14:00 35.960251 -115.277718 190 7887ft 123kts
14-Jan-15 14:01 35.926225 -115.285824 190 8617ft 125kts
14-Jan-15 14:02 35.891920 -115.293869 190 9288ft 127kts
14-Jan-15 14:03 35.857082 -115.301856 190 9883ft 128kts
14-Jan-15 14:04 35.821618 -115.309899 190 10326ft 137kts
14-Jan-15 14:05 35.782496 -115.318574 190 10560ft 143kts
14-Jan-15 14:06 35.746702 -115.338642 239 10608ft 143kts
14-Jan-15 14:07 35.720076 -115.376755 229 10641ft 150kts
14-Jan-15 14:08 35.689513 -115.413320 228 10539ft 153kts
14-Jan-15 14:09 35.658958 -115.449619 228 10500ft 152kts
14-Jan-15 14:10 35.628416 -115.485681 226 10478ft 151kts
14-Jan-15 14:11 35.597876 -115.521597 226 10434ft 151kts
14-Jan-15 14:12 35.567465 -115.557498 226 10428ft 150kts
14-Jan-15 14:13 35.537290 -115.593098 226 10418ft 150kts
14-Jan-15 14:14 35.507183 -115.628577 226 10428ft 149kts
14-Jan-15 14:15 35.477186 -115.663883 226 10458ft 149kts
14-Jan-15 14:16 35.447243 -115.699090 226 10481ft 149kts
14-Jan-15 14:17 35.417221 -115.734352 225 10501ft 149kts
14-Jan-15 14:18 35.387455 -115.769267 227 10526ft 148kts
14-Jan-15 14:19 35.358112 -115.803654 227 10547ft 147kts
14-Jan-15 14:20 35.328597 -115.838220 227 10521ft 146kts
14-Jan-15 14:21 35.299369 -115.872984 228 10495ft 145kts
14-Jan-15 14:22 35.271356 -115.908858 226 10474ft 145kts
14-Jan-15 14:23 35.242252 -115.943216 225 10454ft 145kts
14-Jan-15 14:24 35.212894 -115.977419 225 10428ft 145kts
14-Jan-15 14:25 35.183617 -116.011503 225 10408ft 145kts
14-Jan-15 14:26 35.154265 -116.045645 225 10386ft 145kts
14-Jan-15 14:27 35.125004 -116.079643 225 10368ft 145kts
14-Jan-15 14:28 35.095923 -116.113391 225 10388ft 144kts
14-Jan-15 14:29 35.066850 -116.147100 225 10422ft 143kts
14-Jan-15 14:30 35.037865 -116.180672 225 10443ft 143kts
14-Jan-15 14:31 35.008773 -116.214333 225 10467ft 143kts
14-Jan-15 14:32 34.979758 -116.247870 225 10490ft 143kts
14-Jan-15 14:33 34.950716 -116.281400 227 10516ft 143kts
14-Jan-15 14:34 34.921357 -116.315277 227 10519ft 145kts
14-Jan-15 14:35 34.892106 -116.348978 227 10544ft 145kts
14-Jan-15 14:36 34.862710 -116.382819 227 10568ft 145kts
14-Jan-15 14:37 34.833296 -116.416650 227 10563ft 145kts
14-Jan-15 14:38 34.803828 -116.450502 227 10567ft 145kts
14-Jan-15 14:39 34.765981 -116.468014 193 10523ft 153kts
14-Jan-15 14:40 34.725439 -116.480853 197 10574ft 148kts
14-Jan-15 14:41 34.684574 -116.492453 194 10554ft 151kts
14-Jan-15 14:42 34.643632 -116.503121 194 10571ft 150kts
14-Jan-15 14:43 34.602525 -116.513794 194 10576ft 150kts
14-Jan-15 14:44 34.561523 -116.524437 194 10584ft 150kts
14-Jan-15 14:45 34.520520 -116.535070 194 10594ft 150kts
14-Jan-15 14:46 34.478370 -116.546019 193 10546ft 156kts
14-Jan-15 14:47 34.435311 -116.557173 192 10534ft 155kts
14-Jan-15 14:48 34.392223 -116.568461 193 10547ft 153kts
14-Jan-15 14:49 34.349591 -116.580790 193 10444ft 162kts
14-Jan-15 14:50 34.306778 -116.592049 191 10502ft 156kts
14-Jan-15 14:51 34.263946 -116.603203 191 10556ft 153kts
14-Jan-15 14:52 34.220850 -116.614660 192 10555ft 162kts
14-Jan-15 14:53 34.122951 -116.639901 192 10432ft 158kts
14-Jan-15 14:54 33.952643 -116.683564 190 10234ft 158kts
14-Jan-15 14:55 33.783247 -116.726790 188 10279ft 154kts
14-Jan-15 14:56 33.735188 -116.739026 189 10099ft 157kts
14-Jan-15 14:57 33.689614 -116.750651 189 9390ft 168kts
14-Jan-15 14:58 33.642741 -116.762590 189 8674ft 171kts
14-Jan-15 14:59 33.596942 -116.776597 197 7855ft 163kts
14-Jan-15 15:00 33.557726 -116.798096 195 6283ft 150kts
14-Jan-15 15:01 33.519364 -116.808855 188 5003ft 114kts
14-Jan-15 15:02 33.502289 -116.789108 65 4127ft 81kts
14-Jan-15 15:03 33.518222 -116.789369 296 3488ft 70kts
14-Jan-15 15:04 33.520763 -116.797692 145 3413ft 6kts
14-Jan-15 15:05 33.520756 -116.797500 22 3413ft 0kts

Navigation Log

Ident Type
Flight plan parsing failed, navigation log unavailable